Wednesday, June 20, 2018, 10:44 AM EDT
Back to Local

KFWN, Sussex Airport

Location: Sussex, NJ, United States Lat: 41.2
Local Time: 10:44 AM EDT (14:44 GMT) Lon: -74.633
Time Zone: US/Eastern Elev: 419 ft

Show me the last for .
Show Decoded

2018-06-20 09:53 METAR KFWN 201353Z AUTO 00000KT 10SM CLR 21/14 A2992 RMK AO2 SLP128 T02110139 =
2018-06-20 08:53 METAR KFWN 201253Z AUTO 05004KT 10SM CLR 19/14 A2993 RMK AO2 SLP133 T01940139 =
2018-06-20 07:53 METAR KFWN 201153Z AUTO 00000KT 10SM CLR 18/15 A2993 RMK AO2 SLP133 T01830150
                 10183 20139 51006 =
2018-06-20 06:53 METAR KFWN 201053Z AUTO 00000KT 10SM CLR 16/15 A2993 RMK AO2 SLP133 T01610150 =
2018-06-20 05:53 METAR KFWN 200953Z AUTO 00000KT 10SM CLR 15/14 A2993 RMK AO2 SLP132 T01500144 =
2018-06-20 04:53 METAR KFWN 200853Z AUTO 00000KT 10SM CLR 15/14 A2991 RMK AO2 SLP127 T01500144
                 53004 =
2018-06-20 03:53 METAR KFWN 200753Z AUTO 00000KT 10SM CLR 14/14 A2990 RMK AO2 SLP122 T01440139 =
2018-06-20 02:53 METAR KFWN 200653Z AUTO 00000KT 10SM CLR 15/14 A2991 RMK AO2 SLP124 T01500139 =
2018-06-20 01:53 METAR KFWN 200553Z AUTO 00000KT 10SM CLR 16/14 A2990 RMK AO2 SLP123 T01560144
                 10256 20156 53000 =
2018-06-20 00:53 METAR KFWN 200453Z AUTO 00000KT 10SM CLR 17/15 A2990 RMK AO2 SLP123 T01670150
                 402940167 =
2018-06-19 23:53 METAR KFWN 200353Z AUTO 00000KT 10SM CLR 18/15 A2990 RMK AO2 SLP121 T01780150 =
2018-06-19 22:53 METAR KFWN 200253Z AUTO 00000KT 10SM CLR 18/14 A2990 RMK AO2 SLP122 T01830139
                 50013 =
2018-06-19 21:53 METAR KFWN 200153Z AUTO 00000KT 10SM CLR 18/13 A2991 RMK AO2 SLP125 T01780133 =
2018-06-19 20:53 METAR KFWN 200053Z AUTO 25003KT 10SM CLR 21/14 A2988 RMK AO2 SLP116 T02060139 =
2018-06-19 19:53 METAR KFWN 192353Z AUTO 34004KT 10SM CLR 26/11 A2986 RMK AO2 SLP108 T02560106
                 10294 20256 53007 =
2018-06-19 18:53 METAR KFWN 192253Z AUTO 33004KT 10SM CLR 27/10 A2984 RMK AO2 SLP102 T02720100 =
2018-06-19 17:53 METAR KFWN 192153Z AUTO VRB04KT 10SM CLR 28/12 A2984 RMK AO2 SLP100 T02830117 =
2018-06-19 16:53 METAR KFWN 192053Z AUTO 34008KT 10SM CLR 29/10 A2984 RMK AO2 SLP100 T02890100
                 55001 =
2018-06-19 15:53 METAR KFWN 191953Z AUTO 30008KT 270V340 10SM CLR 29/12 A2983 RMK AO2 SLP097
                 T02890122 =
2018-06-19 14:53 METAR KFWN 191853Z AUTO 01007KT 10SM CLR 29/14 A2984 RMK AO2 SLP099 T02890144 =
2018-06-19 13:53 METAR KFWN 191753Z AUTO 34008KT 310V010 10SM CLR 28/14 A2984 RMK AO2 SLP101
                 T02830139 10283 20244 58001 =
2018-06-19 12:53 METAR KFWN 191653Z AUTO 01010G17KT 350V050 10SM CLR 28/14 A2985 RMK AO2 SLP105
                 T02780144 =
2018-06-19 11:53 METAR KFWN 191553Z AUTO 30008KT 270V340 10SM CLR 27/15 A2985 RMK AO2 SLP104
                 T02720150 =
2018-06-19 10:53 METAR KFWN 191453Z AUTO 02007KT 10SM CLR 27/16 A2984 RMK AO2 SLP102 T02670161
                 53008 =

Support USWX by starting your Amazon purchase here.